Terminal Aerodrome Forecast
Issued by NWS Charleston, WV

Current Version | Previous Version | Graphics & Text | Print | Product List | Glossary On
Versions: 1 2 3 4 5 6 7 8 9 10 11 12 13 14 15 16 17 18 19 20 21 22
000
FTUS41 KRLX 161700
TAFPKB
TAF
KPKB 161740Z 1618/1718 15010G16KT P6SM BKN035 OVC045
     FM162000 15009KT 6SM -SHRA OVC035
     FM170200 17008KT 6SM -SHRA OVC025
     FM170600 18007KT P6SM OVC035
     FM171100 VRB03KT P6SM BKN020
     FM171600 26004KT P6SM SCT020=

USA.gov is the U.S. government's official web portal to all federal, state and local government web resources and services.